»·PEaware :: N2MZ KAJO-KVCV

N2MZ :: KAJO-KVCV

FLIGHT INFORMATION

Flight Status: Arrived
Operator: Privately registered:
United States
More flights under this callsign
Pilot: Mike Z. (25595)
Aircraft: CESSNA 172 SKYHAWK
(C172)
More flights by this aircraft type
Origin: KAJO Corona Mun
United States
Destination: KVCV Socal Logistics
United States
More flights between these airports :: More routes between these airports
Route: +PDZ V442 APLES
File this flight plan on PilotEdge
Remarks: I-11 - VCV VOR, Missed and return VFR
Altitude:
(Current/Filed)
9,000ft
Speed:
(Current/Filed)
120kts
Departed: 21-Nov-19 05:34 PM
Arrived: 21-Nov-19 06:43 PM
Distance/Time
Traveled:
43nm/1:08
Distance/Time
To Go:
Arrived

Flight Plot

Page will automatically refresh every two minutes.


Map Options




Map Legend


Flown Route
Filed Route
Departure Airport
Arrival Airport
Navaid (VOR, NDB)
Fix

Horizontal Profiles

Position Reports

Time Latitude Longitude Heading Altitude Ground
Speed
21-Nov-19 17:28 33.897333 -117.597389 20 537ft 0kts
21-Nov-19 17:29 33.897333 -117.597389 20 537ft 0kts
21-Nov-19 17:30 33.897333 -117.597389 20 537ft 0kts
21-Nov-19 17:31 33.897333 -117.597389 20 537ft 0kts
21-Nov-19 17:32 33.897735 -117.597851 269 537ft 16kts
21-Nov-19 17:33 33.903288 -117.615902 5 1155ft 79kts
21-Nov-19 17:34 33.909403 -117.591647 83 2020ft 81kts
21-Nov-19 17:35 33.912655 -117.565549 64 2887ft 76kts
21-Nov-19 17:36 33.919347 -117.540619 81 3652ft 81kts
21-Nov-19 17:37 33.930940 -117.518903 43 4408ft 81kts
21-Nov-19 17:38 33.944719 -117.497929 38 5154ft 78kts
21-Nov-19 17:39 33.948231 -117.508523 172 5762ft 85kts
21-Nov-19 17:40 33.929377 -117.516787 246 6412ft 83kts
21-Nov-19 17:41 33.915094 -117.536602 286 6952ft 89kts
21-Nov-19 17:42 33.932682 -117.528277 54 7573ft 85kts
21-Nov-19 17:43 33.942998 -117.503541 110 8146ft 85kts
21-Nov-19 17:44 33.933384 -117.515861 200 8542ft 94kts
21-Nov-19 17:45 33.918759 -117.535560 320 8962ft 100kts
21-Nov-19 17:46 33.945028 -117.523817 24 9124ft 115kts
21-Nov-19 17:47 33.975832 -117.503444 23 8858ft 136kts
21-Nov-19 17:48 34.006801 -117.481937 42 8840ft 114kts
21-Nov-19 17:49 34.026145 -117.454182 39 9022ft 114kts
21-Nov-19 17:50 34.055619 -117.435949 21 9039ft 123kts
21-Nov-19 17:51 34.087466 -117.418720 25 9008ft 126kts
21-Nov-19 17:52 34.119190 -117.401679 20 9010ft 125kts
21-Nov-19 17:53 34.152053 -117.387259 18 9009ft 125kts
21-Nov-19 17:54 34.183683 -117.369850 25 9010ft 125kts
21-Nov-19 17:55 34.215100 -117.351500 25 9010ft 125kts
21-Nov-19 17:56 34.246382 -117.332596 26 9010ft 125kts
21-Nov-19 17:57 34.277615 -117.313683 26 9010ft 125kts
21-Nov-19 17:58 34.308650 -117.294791 27 9006ft 123kts
21-Nov-19 18:00 34.337901 -117.276950 26 9008ft 114kts
21-Nov-19 18:01 34.365960 -117.259933 26 9009ft 111kts
21-Nov-19 18:02 34.393568 -117.243179 26 9009ft 110kts
21-Nov-19 18:03 34.421405 -117.226269 26 8948ft 115kts
21-Nov-19 18:04 34.449913 -117.210005 25 8958ft 113kts
21-Nov-19 18:05 34.478180 -117.192993 26 8958ft 114kts
21-Nov-19 18:06 34.506554 -117.175728 26 8958ft 114kts
21-Nov-19 18:07 34.535186 -117.158285 25 8958ft 115kts
21-Nov-19 18:08 34.565432 -117.146027 13 8814ft 112kts
21-Nov-19 18:09 34.593846 -117.140642 359 8286ft 98kts
21-Nov-19 18:10 34.620401 -117.143770 345 7782ft 95kts
21-Nov-19 18:11 34.645030 -117.152638 343 7418ft 85kts
21-Nov-19 18:12 34.667863 -117.161069 343 7238ft 97kts
21-Nov-19 18:13 34.694401 -117.177055 328 7052ft 103kts
21-Nov-19 18:14 34.717190 -117.193856 329 6844ft 100kts
21-Nov-19 18:15 34.737679 -117.217784 314 6640ft 96kts
21-Nov-19 18:16 34.755953 -117.242409 304 6563ft 96kts
21-Nov-19 18:17 34.770475 -117.268597 304 6565ft 92kts
21-Nov-19 18:18 34.783051 -117.296246 295 6501ft 98kts
21-Nov-19 18:19 34.792075 -117.328664 283 6313ft 103kts
21-Nov-19 18:20 34.787899 -117.355084 201 6071ft 81kts
21-Nov-19 18:20 34.775001 -117.369397 244 5899ft 78kts
21-Nov-19 18:22 34.749222 -117.378127 190 5378ft 104kts
21-Nov-19 18:23 34.722346 -117.383925 173 4698ft 91kts
21-Nov-19 18:23 34.702430 -117.386112 185 4222ft 79kts
21-Nov-19 18:24 34.680312 -117.384990 168 4290ft 89kts
21-Nov-19 18:26 34.652525 -117.386322 182 3641ft 86kts
21-Nov-19 18:26 34.633417 -117.386013 182 3068ft 76kts
21-Nov-19 18:27 34.610898 -117.387662 204 3556ft 92kts
21-Nov-19 18:29 34.604173 -117.420030 260 4398ft 90kts
21-Nov-19 18:29 34.607806 -117.443484 279 5056ft 81kts
21-Nov-19 18:30 34.612163 -117.468723 282 5728ft 83kts
21-Nov-19 18:31 34.618328 -117.500745 283 5959ft 116kts
21-Nov-19 18:32 34.626063 -117.542783 268 5422ft 141kts
21-Nov-19 18:33 34.604691 -117.543759 109 5435ft 102kts
21-Nov-19 18:34 34.598305 -117.510725 96 5435ft 99kts
21-Nov-19 18:35 34.595155 -117.476502 96 5268ft 111kts
21-Nov-19 18:36 34.598102 -117.438346 68 4780ft 117kts
21-Nov-19 18:37 34.622149 -117.418679 41 4429ft 92kts
21-Nov-19 18:38 34.641341 -117.398422 48 4049ft 81kts
21-Nov-19 18:39 34.630695 -117.386853 177 3587ft 64kts
21-Nov-19 18:40 34.613831 -117.386694 180 2858ft 71kts
21-Nov-19 18:41 34.598388 -117.386589 180 2848ft 68kts
21-Nov-19 18:42 34.594876 -117.385262 89 2855ft 0kts
21-Nov-19 18:43 34.594885 -117.384621 86 2855ft 14kts
21-Nov-19 18:44 34.590398 -117.378500 133 2867ft 18kts
21-Nov-19 18:45 34.585804 -117.380856 184 2875ft 27kts
21-Nov-19 18:46 34.585199 -117.380661 138 2876ft 0kts
21-Nov-19 18:47 34.585199 -117.380661 138 2876ft 0kts
21-Nov-19 18:48 34.585199 -117.380661 138 2876ft 0kts
21-Nov-19 18:49 34.585199 -117.380661 138 2876ft 0kts
21-Nov-19 18:50 34.585199 -117.380661 138 2876ft 0kts

Navigation Log

Ident Type
Flight plan parsing failed, navigation log unavailable